sensor_id;sensor_type;location;lat;lon;timestamp;pressure;altitude;pressure_sealevel;temperature;humidity
16331;BME280;8275;48.206;16.340;2023-03-04T00:00:07;99547.13;;;9.29;35.81
16331;BME280;8275;48.206;16.340;2023-03-04T00:02:37;99535.84;;;9.26;35.84
16331;BME280;8275;48.206;16.340;2023-03-04T00:05:07;99536.94;;;9.25;35.59
16331;BME280;8275;48.206;16.340;2023-03-04T00:07:35;99542.66;;;9.23;35.56
16331;BME280;8275;48.206;16.340;2023-03-04T00:10:05;99542.88;;;9.22;35.70
16331;BME280;8275;48.206;16.340;2023-03-04T00:12:34;99539.81;;;9.18;35.75
16331;BME280;8275;48.206;16.340;2023-03-04T00:15:03;99540.03;;;9.16;35.87
16331;BME280;8275;48.206;16.340;2023-03-04T00:17:31;99531.25;;;9.14;35.97
16331;BME280;8275;48.206;16.340;2023-03-04T00:20:01;99534.69;;;9.10;36.15
16331;BME280;8275;48.206;16.340;2023-03-04T00:22:30;99534.94;;;9.08;36.07
16331;BME280;8275;48.206;16.340;2023-03-04T00:24:58;99532.69;;;9.05;35.99
16331;BME280;8275;48.206;16.340;2023-03-04T00:27:27;99532.09;;;9.03;36.08
16331;BME280;8275;48.206;16.340;2023-03-04T00:29:55;99534.00;;;9.03;35.91
16331;BME280;8275;48.206;16.340;2023-03-04T00:32:24;99525.78;;;9.03;35.89
16331;BME280;8275;48.206;16.340;2023-03-04T00:34:53;99529.63;;;9.02;35.97
16331;BME280;8275;48.206;16.340;2023-03-04T00:37:23;99519.75;;;9.01;35.84
16331;BME280;8275;48.206;16.340;2023-03-04T00:39:51;99516.41;;;8.99;35.91
16331;BME280;8275;48.206;16.340;2023-03-04T00:42:20;99515.59;;;8.98;36.00
16331;BME280;8275;48.206;16.340;2023-03-04T00:44:48;99512.00;;;8.98;35.97
16331;BME280;8275;48.206;16.340;2023-03-04T00:47:17;99513.94;;;8.97;36.27
16331;BME280;8275;48.206;16.340;2023-03-04T00:49:46;99509.53;;;8.96;36.34
16331;BME280;8275;48.206;16.340;2023-03-04T00:52:14;99512.25;;;8.96;36.21
16331;BME280;8275;48.206;16.340;2023-03-04T00:54:44;99506.22;;;8.94;36.35
16331;BME280;8275;48.206;16.340;2023-03-04T00:57:12;99504.53;;;8.93;36.38
16331;BME280;8275;48.206;16.340;2023-03-04T00:59:41;99498.47;;;8.91;36.35
16331;BME280;8275;48.206;16.340;2023-03-04T01:02:10;99494.94;;;8.91;36.14
16331;BME280;8275;48.206;16.340;2023-03-04T01:04:39;99497.91;;;8.89;36.29
16331;BME280;8275;48.206;16.340;2023-03-04T01:07:09;99491.59;;;8.89;36.04
16331;BME280;8275;48.206;16.340;2023-03-04T01:09:37;99494.59;;;8.87;36.04
16331;BME280;8275;48.206;16.340;2023-03-04T01:12:07;99488.28;;;8.87;36.13
16331;BME280;8275;48.206;16.340;2023-03-04T01:14:36;99487.69;;;8.85;36.12
16331;BME280;8275;48.206;16.340;2023-03-04T01:17:04;99483.31;;;8.84;35.87
16331;BME280;8275;48.206;16.340;2023-03-04T01:19:33;99473.44;;;8.83;36.04
16331;BME280;8275;48.206;16.340;2023-03-04T01:22:01;99482.69;;;8.82;35.93
16331;BME280;8275;48.206;16.340;2023-03-04T01:24:30;99473.91;;;8.80;36.04
16331;BME280;8275;48.206;16.340;2023-03-04T01:26:58;99479.63;;;8.78;36.04
16331;BME280;8275;48.206;16.340;2023-03-04T01:29:28;99466.44;;;8.75;36.09
16331;BME280;8275;48.206;16.340;2023-03-04T01:31:57;99474.06;;;8.73;36.03
16331;BME280;8275;48.206;16.340;2023-03-04T01:34:25;99465.03;;;8.73;35.94
16331;BME280;8275;48.206;16.340;2023-03-04T01:36:54;99469.31;;;8.69;35.93
16331;BME280;8275;48.206;16.340;2023-03-04T01:39:22;99466.81;;;8.67;36.11
16331;BME280;8275;48.206;16.340;2023-03-04T01:41:50;99464.31;;;8.66;36.04
16331;BME280;8275;48.206;16.340;2023-03-04T01:44:19;99469.19;;;8.64;36.14
16331;BME280;8275;48.206;16.340;2023-03-04T01:46:53;99456.84;;;8.61;36.04
16331;BME280;8275;48.206;16.340;2023-03-04T01:49:22;99462.31;;;8.61;36.39
16331;BME280;8275;48.206;16.340;2023-03-04T01:51:52;99461.50;;;8.61;36.29
16331;BME280;8275;48.206;16.340;2023-03-04T01:54:22;99456.03;;;8.61;36.28
16331;BME280;8275;48.206;16.340;2023-03-04T01:56:51;99450.31;;;8.62;36.42
16331;BME280;8275;48.206;16.340;2023-03-04T01:59:23;99445.91;;;8.61;36.49
16331;BME280;8275;48.206;16.340;2023-03-04T02:01:56;99445.69;;;8.63;36.97
16331;BME280;8275;48.206;16.340;2023-03-04T02:04:28;99442.13;;;8.62;36.82
16331;BME280;8275;48.206;16.340;2023-03-04T02:06:59;99435.38;;;8.65;36.97
16331;BME280;8275;48.206;16.340;2023-03-04T02:09:28;99429.91;;;8.65;36.89
16331;BME280;8275;48.206;16.340;2023-03-04T02:11:58;99428.81;;;8.66;37.06
16331;BME280;8275;48.206;16.340;2023-03-04T02:14:26;99421.72;;;8.65;37.04
16331;BME280;8275;48.206;16.340;2023-03-04T02:16:56;99418.97;;;8.65;37.27
16331;BME280;8275;48.206;16.340;2023-03-04T02:19:39;99421.97;;;8.63;37.25
16331;BME280;8275;48.206;16.340;2023-03-04T02:22:09;99417.31;;;8.64;37.20
16331;BME280;8275;48.206;16.340;2023-03-04T02:24:42;99419.44;;;8.62;37.38
16331;BME280;8275;48.206;16.340;2023-03-04T02:27:14;99424.91;;;8.62;37.58
16331;BME280;8275;48.206;16.340;2023-03-04T02:29:42;99426.00;;;8.61;37.37
16331;BME280;8275;48.206;16.340;2023-03-04T02:32:12;99426.81;;;8.61;37.51
16331;BME280;8275;48.206;16.340;2023-03-04T02:34:46;99415.88;;;8.61;37.51
16331;BME280;8275;48.206;16.340;2023-03-04T02:37:17;99417.81;;;8.61;37.44
16331;BME280;8275;48.206;16.340;2023-03-04T02:39:48;99406.88;;;8.61;37.48
16331;BME280;8275;48.206;16.340;2023-03-04T02:42:18;99407.69;;;8.61;37.61
16331;BME280;8275;48.206;16.340;2023-03-04T02:44:47;99405.78;;;8.62;37.79
16331;BME280;8275;48.206;16.340;2023-03-04T02:47:17;99399.03;;;8.64;37.82
16331;BME280;8275;48.206;16.340;2023-03-04T02:49:46;99395.47;;;8.64;37.76
16331;BME280;8275;48.206;16.340;2023-03-04T02:52:19;99387.03;;;8.65;37.32
16331;BME280;8275;48.206;16.340;2023-03-04T02:54:48;99393.31;;;8.66;37.39
16331;BME280;8275;48.206;16.340;2023-03-04T02:57:18;99381.59;;;8.65;37.71
16331;BME280;8275;48.206;16.340;2023-03-04T02:59:46;99382.63;;;8.64;37.59
16331;BME280;8275;48.206;16.340;2023-03-04T03:02:15;99377.19;;;8.64;37.73
16331;BME280;8275;48.206;16.340;2023-03-04T03:04:43;99374.44;;;8.64;37.50
16331;BME280;8275;48.206;16.340;2023-03-04T03:07:12;99375.28;;;8.65;37.43
16331;BME280;8275;48.206;16.340;2023-03-04T03:09:40;99369.00;;;8.64;37.38
16331;BME280;8275;48.206;16.340;2023-03-04T03:12:09;99365.66;;;8.62;37.32
16331;BME280;8275;48.206;16.340;2023-03-04T03:14:39;99370.28;;;8.62;37.33
16331;BME280;8275;48.206;16.340;2023-03-04T03:17:07;99371.13;;;8.62;37.19
16331;BME280;8275;48.206;16.340;2023-03-04T03:19:36;99363.78;;;8.63;37.64
16331;BME280;8275;48.206;16.340;2023-03-04T03:22:05;99354.50;;;8.64;37.47
16331;BME280;8275;48.206;16.340;2023-03-04T03:24:33;99357.81;;;8.66;37.71
16331;BME280;8275;48.206;16.340;2023-03-04T03:27:02;99348.81;;;8.65;38.14
16331;BME280;8275;48.206;16.340;2023-03-04T03:29:30;99349.16;;;8.69;38.06
16331;BME280;8275;48.206;16.340;2023-03-04T03:32:00;99339.91;;;8.70;38.07
16331;BME280;8275;48.206;16.340;2023-03-04T03:34:29;99336.06;;;8.71;38.27
16331;BME280;8275;48.206;16.340;2023-03-04T03:36:57;99333.34;;;8.71;37.94
16331;BME280;8275;48.206;16.340;2023-03-04T03:39:26;99339.38;;;8.73;37.93
16331;BME280;8275;48.206;16.340;2023-03-04T03:41:54;99323.00;;;8.73;38.45
16331;BME280;8275;48.206;16.340;2023-03-04T03:44:22;99326.56;;;8.73;38.77
16331;BME280;8275;48.206;16.340;2023-03-04T03:46:51;99327.97;;;8.76;39.04
16331;BME280;8275;48.206;16.340;2023-03-04T03:49:21;99322.53;;;8.76;39.06
16331;BME280;8275;48.206;16.340;2023-03-04T03:51:49;99316.00;;;8.77;39.17
16331;BME280;8275;48.206;16.340;2023-03-04T03:54:18;99322.03;;;8.79;39.24
16331;BME280;8275;48.206;16.340;2023-03-04T03:56:46;99310.88;;;8.80;39.41
16331;BME280;8275;48.206;16.340;2023-03-04T03:59:14;99309.81;;;8.81;39.41
16331;BME280;8275;48.206;16.340;2023-03-04T04:01:43;99303.03;;;8.84;39.82
16331;BME280;8275;48.206;16.340;2023-03-04T04:04:11;99301.72;;;8.86;39.76
16331;BME280;8275;48.206;16.340;2023-03-04T04:06:41;99303.09;;;8.89;39.79
16331;BME280;8275;48.206;16.340;2023-03-04T04:09:09;99291.94;;;8.90;39.87
16331;BME280;8275;48.206;16.340;2023-03-04T04:11:38;99294.16;;;8.93;40.11
16331;BME280;8275;48.206;16.340;2023-03-04T04:14:08;99290.13;;;8.96;40.23
16331;BME280;8275;48.206;16.340;2023-03-04T04:16:37;99282.28;;;8.99;40.20
16331;BME280;8275;48.206;16.340;2023-03-04T04:19:05;99287.25;;;9.02;40.40
16331;BME280;8275;48.206;16.340;2023-03-04T04:21:34;99287.59;;;9.06;40.64
16331;BME280;8275;48.206;16.340;2023-03-04T04:24:04;99282.69;;;9.08;40.57
16331;BME280;8275;48.206;16.340;2023-03-04T04:26:32;99284.13;;;9.10;40.60
16331;BME280;8275;48.206;16.340;2023-03-04T04:29:01;99281.97;;;9.12;40.70
16331;BME280;8275;48.206;16.340;2023-03-04T04:31:29;99276.84;;;9.16;40.84
16331;BME280;8275;48.206;16.340;2023-03-04T04:33:58;99267.06;;;9.20;40.83
16331;BME280;8275;48.206;16.340;2023-03-04T04:36:26;99270.97;;;9.24;41.13
16331;BME280;8275;48.206;16.340;2023-03-04T04:38:55;99263.91;;;9.28;40.97
16331;BME280;8275;48.206;16.340;2023-03-04T04:41:28;99258.78;;;9.32;41.13
16331;BME280;8275;48.206;16.340;2023-03-04T04:43:58;99265.41;;;9.36;41.19
16331;BME280;8275;48.206;16.340;2023-03-04T04:46:27;99264.94;;;9.39;41.23
16331;BME280;8275;48.206;16.340;2023-03-04T04:48:56;99260.88;;;9.41;41.37
16331;BME280;8275;48.206;16.340;2023-03-04T04:51:24;99259.28;;;9.45;41.37
16331;BME280;8275;48.206;16.340;2023-03-04T04:53:53;99262.34;;;9.49;42.00
16331;BME280;8275;48.206;16.340;2023-03-04T04:56:24;99261.59;;;9.53;41.78
16331;BME280;8275;48.206;16.340;2023-03-04T04:58:55;99260.03;;;9.57;42.11
16331;BME280;8275;48.206;16.340;2023-03-04T05:01:25;99254.03;;;9.60;41.84
16331;BME280;8275;48.206;16.340;2023-03-04T05:03:54;99256.84;;;9.65;41.91
16331;BME280;8275;48.206;16.340;2023-03-04T05:06:23;99244.59;;;9.68;41.84
16331;BME280;8275;48.206;16.340;2023-03-04T05:08:52;99241.59;;;9.69;42.01
16331;BME280;8275;48.206;16.340;2023-03-04T05:11:21;99235.63;;;9.72;41.64
16331;BME280;8275;48.206;16.340;2023-03-04T05:13:51;99242.75;;;9.73;41.92
16331;BME280;8275;48.206;16.340;2023-03-04T05:16:19;99238.69;;;9.76;41.85
16331;BME280;8275;48.206;16.340;2023-03-04T05:18:47;99243.66;;;9.79;42.05
16331;BME280;8275;48.206;16.340;2023-03-04T05:21:16;99243.41;;;9.80;42.30
16331;BME280;8275;48.206;16.340;2023-03-04T05:23:45;99241.81;;;9.84;42.67
16331;BME280;8275;48.206;16.340;2023-03-04T05:26:16;99244.06;;;9.87;42.41
16331;BME280;8275;48.206;16.340;2023-03-04T05:28:45;99233.69;;;9.89;42.40
16331;BME280;8275;48.206;16.340;2023-03-04T05:31:15;99236.75;;;9.93;42.19
16331;BME280;8275;48.206;16.340;2023-03-04T05:33:44;99244.44;;;9.96;42.15
16331;BME280;8275;48.206;16.340;2023-03-04T05:36:12;99235.16;;;9.97;42.18
16331;BME280;8275;48.206;16.340;2023-03-04T05:38:41;99231.91;;;10.00;42.03
16331;BME280;8275;48.206;16.340;2023-03-04T05:41:09;99236.06;;;10.03;42.39
16331;BME280;8275;48.206;16.340;2023-03-04T05:43:38;99237.47;;;10.05;42.17
16331;BME280;8275;48.206;16.340;2023-03-04T05:46:15;99238.59;;;10.09;42.15
16331;BME280;8275;48.206;16.340;2023-03-04T05:48:45;99247.19;;;10.13;42.00
16331;BME280;8275;48.206;16.340;2023-03-04T05:51:13;99240.09;;;10.17;42.18
16331;BME280;8275;48.206;16.340;2023-03-04T05:53:42;99245.88;;;10.20;42.70
16331;BME280;8275;48.206;16.340;2023-03-04T05:56:13;99235.50;;;10.22;42.50
16331;BME280;8275;48.206;16.340;2023-03-04T05:58:42;99246.78;;;10.26;42.20
16331;BME280;8275;48.206;16.340;2023-03-04T06:01:10;99246.03;;;10.30;42.13
16331;BME280;8275;48.206;16.340;2023-03-04T06:03:40;99256.22;;;10.35;42.38
16331;BME280;8275;48.206;16.340;2023-03-04T06:06:10;99262.00;;;10.38;42.32
16331;BME280;8275;48.206;16.340;2023-03-04T06:08:38;99260.41;;;10.42;42.34
16331;BME280;8275;48.206;16.340;2023-03-04T06:11:07;99255.00;;;10.47;42.51
16331;BME280;8275;48.206;16.340;2023-03-04T06:13:35;99256.38;;;10.50;41.99
16331;BME280;8275;48.206;16.340;2023-03-04T06:16:05;99255.88;;;10.53;42.19
16331;BME280;8275;48.206;16.340;2023-03-04T06:18:33;99253.19;;;10.58;42.49
16331;BME280;8275;48.206;16.340;2023-03-04T06:21:04;99269.38;;;10.59;42.19
16331;BME280;8275;48.206;16.340;2023-03-04T06:23:32;99263.13;;;10.64;41.96
16331;BME280;8275;48.206;16.340;2023-03-04T06:26:01;99265.34;;;10.67;42.64
16331;BME280;8275;48.206;16.340;2023-03-04T06:28:29;99267.59;;;10.70;42.65
16331;BME280;8275;48.206;16.340;2023-03-04T06:30:58;99268.16;;;10.72;42.44
16331;BME280;8275;48.206;16.340;2023-03-04T06:33:26;99275.03;;;10.75;42.77
16331;BME280;8275;48.206;16.340;2023-03-04T06:35:56;99269.84;;;10.78;42.96
16331;BME280;8275;48.206;16.340;2023-03-04T06:38:26;99269.34;;;10.81;43.07
16331;BME280;8275;48.206;16.340;2023-03-04T06:40:54;99272.38;;;10.85;43.25
16331;BME280;8275;48.206;16.340;2023-03-04T06:43:24;99272.19;;;10.91;43.01
16331;BME280;8275;48.206;16.340;2023-03-04T06:45:52;99274.97;;;10.96;42.78
16331;BME280;8275;48.206;16.340;2023-03-04T06:48:21;99279.44;;;11.02;42.85
16331;BME280;8275;48.206;16.340;2023-03-04T06:50:49;99280.88;;;11.10;42.63
16331;BME280;8275;48.206;16.340;2023-03-04T06:53:18;99283.44;;;11.16;42.75
16331;BME280;8275;48.206;16.340;2023-03-04T06:55:47;99273.88;;;11.24;43.04
16331;BME280;8275;48.206;16.340;2023-03-04T06:58:16;99277.22;;;11.31;42.21
16331;BME280;8275;48.206;16.340;2023-03-04T07:00:45;99273.47;;;11.37;42.45
16331;BME280;8275;48.206;16.340;2023-03-04T07:03:13;99266.09;;;11.43;42.27
16331;BME280;8275;48.206;16.340;2023-03-04T07:05:42;99261.22;;;11.50;42.39
16331;BME280;8275;48.206;16.340;2023-03-04T07:08:10;99266.47;;;11.56;42.06
16331;BME280;8275;48.206;16.340;2023-03-04T07:10:39;99266.00;;;11.64;41.98
16331;BME280;8275;48.206;16.340;2023-03-04T07:13:09;99267.72;;;11.70;41.83
16331;BME280;8275;48.206;16.340;2023-03-04T07:15:37;99267.47;;;11.77;41.83
16331;BME280;8275;48.206;16.340;2023-03-04T07:18:06;99269.97;;;11.83;42.00
16331;BME280;8275;48.206;16.340;2023-03-04T07:20:35;99268.94;;;11.89;41.79
16331;BME280;8275;48.206;16.340;2023-03-04T07:23:03;99258.81;;;11.95;41.75
16331;BME280;8275;48.206;16.340;2023-03-04T07:25:32;99261.06;;;12.03;41.34
16331;BME280;8275;48.206;16.340;2023-03-04T07:28:00;99250.66;;;12.10;41.29
16331;BME280;8275;48.206;16.340;2023-03-04T07:30:30;99247.41;;;12.13;41.53
16331;BME280;8275;48.206;16.340;2023-03-04T07:32:59;99248.78;;;12.21;41.51
16331;BME280;8275;48.206;16.340;2023-03-04T07:35:27;99238.66;;;12.26;41.09
16331;BME280;8275;48.206;16.340;2023-03-04T07:37:56;99255.97;;;12.32;40.85
16331;BME280;8275;48.206;16.340;2023-03-04T07:40:24;99243.94;;;12.38;40.84
16331;BME280;8275;48.206;16.340;2023-03-04T07:42:54;99257.13;;;12.46;40.72
16331;BME280;8275;48.206;16.340;2023-03-04T07:45:23;99255.81;;;12.53;40.96
16331;BME280;8275;48.206;16.340;2023-03-04T07:47:53;99245.66;;;12.59;40.65
16331;BME280;8275;48.206;16.340;2023-03-04T07:50:22;99251.47;;;12.67;40.66
16331;BME280;8275;48.206;16.340;2023-03-04T07:52:50;99254.25;;;12.78;40.35
16331;BME280;8275;48.206;16.340;2023-03-04T07:55:19;99255.63;;;12.85;40.09
16331;BME280;8275;48.206;16.340;2023-03-04T07:57:48;99246.84;;;12.93;40.08
16331;BME280;8275;48.206;16.340;2023-03-04T08:00:18;99247.41;;;13.00;39.96
16331;BME280;8275;48.206;16.340;2023-03-04T08:02:46;99257.91;;;13.08;39.79
16331;BME280;8275;48.206;16.340;2023-03-04T08:05:19;99254.88;;;13.15;39.55
16331;BME280;8275;48.206;16.340;2023-03-04T08:07:47;99249.94;;;13.22;39.34
16331;BME280;8275;48.206;16.340;2023-03-04T08:10:16;99248.03;;;13.32;39.39
16331;BME280;8275;48.206;16.340;2023-03-04T08:12:45;99260.41;;;13.40;39.16
16331;BME280;8275;48.206;16.340;2023-03-04T08:15:13;99252.69;;;13.47;39.04
16331;BME280;8275;48.206;16.340;2023-03-04T08:17:42;99263.41;;;13.59;38.81
16331;BME280;8275;48.206;16.340;2023-03-04T08:20:12;99262.59;;;13.68;38.77
16331;BME280;8275;48.206;16.340;2023-03-04T08:22:41;99260.94;;;13.77;38.60
16331;BME280;8275;48.206;16.340;2023-03-04T08:25:10;99259.56;;;13.85;38.35
16331;BME280;8275;48.206;16.340;2023-03-04T08:27:39;99267.81;;;13.95;38.22
16331;BME280;8275;48.206;16.340;2023-03-04T08:30:09;99255.66;;;14.01;38.06
16331;BME280;8275;48.206;16.340;2023-03-04T08:32:38;99259.50;;;14.10;38.00
16331;BME280;8275;48.206;16.340;2023-03-04T08:35:07;99267.47;;;14.17;37.84
16331;BME280;8275;48.206;16.340;2023-03-04T08:37:35;99265.25;;;14.24;37.79
16331;BME280;8275;48.206;16.340;2023-03-04T08:40:07;99270.22;;;14.32;37.57
16331;BME280;8275;48.206;16.340;2023-03-04T08:42:36;99258.06;;;14.38;37.38
16331;BME280;8275;48.206;16.340;2023-03-04T08:45:06;99253.38;;;14.43;37.27
16331;BME280;8275;48.206;16.340;2023-03-04T08:47:35;99261.03;;;14.51;37.17
16331;BME280;8275;48.206;16.340;2023-03-04T08:50:05;99253.06;;;14.55;37.10
16331;BME280;8275;48.206;16.340;2023-03-04T08:52:33;99259.88;;;14.62;36.97
16331;BME280;8275;48.206;16.340;2023-03-04T08:55:02;99260.41;;;14.69;36.86
16331;BME280;8275;48.206;16.340;2023-03-04T08:57:32;99258.69;;;14.78;36.62
16331;BME280;8275;48.206;16.340;2023-03-04T09:00:01;99256.47;;;14.86;36.59
16331;BME280;8275;48.206;16.340;2023-03-04T09:02:29;99255.88;;;14.94;36.25
16331;BME280;8275;48.206;16.340;2023-03-04T09:04:58;99253.34;;;14.97;34.85
16331;BME280;8275;48.206;16.340;2023-03-04T09:07:26;99252.53;;;14.97;34.25
16331;BME280;8275;48.206;16.340;2023-03-04T09:09:55;99248.66;;;14.98;34.42
16331;BME280;8275;48.206;16.340;2023-03-04T09:12:23;99238.72;;;15.02;34.43
16331;BME280;8275;48.206;16.340;2023-03-04T09:14:53;99255.56;;;15.00;33.10
16331;BME280;8275;48.206;16.340;2023-03-04T09:17:38;99228.53;;;14.97;32.38
16331;BME280;8275;48.206;16.340;2023-03-04T09:20:09;99244.88;;;14.89;32.94
16331;BME280;8275;48.206;16.340;2023-03-04T09:22:39;99255.34;;;14.92;33.45
16331;BME280;8275;48.206;16.340;2023-03-04T09:25:10;99247.00;;;14.97;32.77
16331;BME280;8275;48.206;16.340;2023-03-04T09:27:39;99244.22;;;15.02;32.86
16331;BME280;8275;48.206;16.340;2023-03-04T09:30:11;99242.53;;;15.06;31.80
16331;BME280;8275;48.206;16.340;2023-03-04T09:32:40;99267.66;;;15.04;29.42
16331;BME280;8275;48.206;16.340;2023-03-04T09:35:08;99250.59;;;14.97;29.88
16331;BME280;8275;48.206;16.340;2023-03-04T09:37:37;99246.47;;;14.95;29.35
16331;BME280;8275;48.206;16.340;2023-03-04T09:40:12;99237.09;;;14.96;29.94
16331;BME280;8275;48.206;16.340;2023-03-04T09:42:46;99237.34;;;14.99;29.27
16331;BME280;8275;48.206;16.340;2023-03-04T09:45:21;99231.25;;;15.02;29.22
16331;BME280;8275;48.206;16.340;2023-03-04T09:47:52;99229.03;;;15.04;28.46
16331;BME280;8275;48.206;16.340;2023-03-04T09:50:22;99231.78;;;15.09;28.80
16331;BME280;8275;48.206;16.340;2023-03-04T09:53:05;99213.28;;;15.10;28.88
16331;BME280;8275;48.206;16.340;2023-03-04T09:55:39;99221.78;;;15.13;28.16
16331;BME280;8275;48.206;16.340;2023-03-04T09:58:24;99222.09;;;15.12;27.27
16331;BME280;8275;48.206;16.340;2023-03-04T10:01:02;99215.19;;;15.14;28.27
16331;BME280;8275;48.206;16.340;2023-03-04T10:03:40;99216.53;;;15.17;27.19
16331;BME280;8275;48.206;16.340;2023-03-04T10:06:14;99207.66;;;15.20;27.58
16331;BME280;8275;48.206;16.340;2023-03-04T10:08:51;99220.66;;;15.19;26.87
16331;BME280;8275;48.206;16.340;2023-03-04T10:11:25;99213.19;;;15.20;27.14
16331;BME280;8275;48.206;16.340;2023-03-04T10:14:10;99217.91;;;15.19;27.00
16331;BME280;8275;48.206;16.340;2023-03-04T10:16:48;99203.84;;;15.16;26.84
16331;BME280;8275;48.206;16.340;2023-03-04T10:19:37;99206.91;;;15.14;27.29
16331;BME280;8275;48.206;16.340;2023-03-04T10:22:18;99211.56;;;15.19;27.31
16331;BME280;8275;48.206;16.340;2023-03-04T10:24:48;99191.63;;;15.22;27.42
16331;BME280;8275;48.206;16.340;2023-03-04T10:27:18;99202.66;;;15.27;27.47
16331;BME280;8275;48.206;16.340;2023-03-04T10:29:47;99196.25;;;15.31;26.98
16331;BME280;8275;48.206;16.340;2023-03-04T10:32:19;99196.00;;;15.33;27.14
16331;BME280;8275;48.206;16.340;2023-03-04T10:34:48;99187.66;;;15.38;27.39
16331;BME280;8275;48.206;16.340;2023-03-04T10:37:16;99179.31;;;15.43;27.01
16331;BME280;8275;48.206;16.340;2023-03-04T10:39:46;99190.34;;;15.48;27.38
16331;BME280;8275;48.206;16.340;2023-03-04T10:42:27;99181.19;;;15.53;27.31
16331;BME280;8275;48.206;16.340;2023-03-04T10:45:22;99180.84;;;15.59;27.29
16331;BME280;8275;48.206;16.340;2023-03-04T10:47:55;99176.56;;;15.77;27.07
16331;BME280;8275;48.206;16.340;2023-03-04T10:50:26;99170.44;;;16.03;26.84
16331;BME280;8275;48.206;16.340;2023-03-04T10:52:56;99166.09;;;16.40;27.04
16331;BME280;8275;48.206;16.340;2023-03-04T10:55:28;99168.94;;;16.77;26.46
16331;BME280;8275;48.206;16.340;2023-03-04T10:58:04;99166.00;;;17.24;26.59
16331;BME280;8275;48.206;16.340;2023-03-04T11:00:35;99147.75;;;17.69;26.20
16331;BME280;8275;48.206;16.340;2023-03-04T11:03:28;99146.44;;;18.07;23.64
16331;BME280;8275;48.206;16.340;2023-03-04T11:06:10;99158.66;;;18.34;24.38
16331;BME280;8275;48.206;16.340;2023-03-04T11:08:40;99150.25;;;18.52;23.43
16331;BME280;8275;48.206;16.340;2023-03-04T11:11:23;99149.28;;;18.70;23.11
16331;BME280;8275;48.206;16.340;2023-03-04T11:13:55;99138.47;;;18.82;22.55
16331;BME280;8275;48.206;16.340;2023-03-04T11:16:28;99130.69;;;18.93;21.95
16331;BME280;8275;48.206;16.340;2023-03-04T11:19:03;99132.91;;;19.05;22.64
16331;BME280;8275;48.206;16.340;2023-03-04T11:21:38;99117.88;;;19.28;23.15
16331;BME280;8275;48.206;16.340;2023-03-04T11:24:13;99114.72;;;19.65;23.54
16331;BME280;8275;48.206;16.340;2023-03-04T11:27:01;99117.66;;;20.08;22.86
16331;BME280;8275;48.206;16.340;2023-03-04T11:29:35;99113.72;;;20.40;21.62
16331;BME280;8275;48.206;16.340;2023-03-04T11:32:10;99104.88;;;20.55;21.63
16331;BME280;8275;48.206;16.340;2023-03-04T11:34:47;99118.47;;;20.56;20.69
16331;BME280;8275;48.206;16.340;2023-03-04T11:37:26;99108.16;;;20.57;20.09
16331;BME280;8275;48.206;16.340;2023-03-04T11:40:01;99112.75;;;20.53;20.35
16331;BME280;8275;48.206;16.340;2023-03-04T11:42:37;99114.53;;;20.49;20.29
16331;BME280;8275;48.206;16.340;2023-03-04T11:45:11;99106.84;;;20.54;20.44
16331;BME280;8275;48.206;16.340;2023-03-04T11:48:01;99101.31;;;20.63;19.30
16331;BME280;8275;48.206;16.340;2023-03-04T11:50:42;99100.13;;;20.64;20.07
16331;BME280;8275;48.206;16.340;2023-03-04T11:53:39;99095.06;;;20.74;19.69
16331;BME280;8275;48.206;16.340;2023-03-04T11:56:27;99091.47;;;20.82;19.29
16331;BME280;8275;48.206;16.340;2023-03-04T11:59:19;99080.31;;;20.91;19.07
16331;BME280;8275;48.206;16.340;2023-03-04T12:02:10;99085.09;;;21.08;19.06
16331;BME280;8275;48.206;16.340;2023-03-04T12:08:17;99068.56;;;21.57;19.87
16331;BME280;8275;48.206;16.340;2023-03-04T12:10:58;99061.06;;;21.96;18.61
16331;BME280;8275;48.206;16.340;2023-03-04T12:13:52;99061.22;;;21.99;18.86
16331;BME280;8275;48.206;16.340;2023-03-04T12:16:47;99062.81;;;22.09;18.68
16331;BME280;8275;48.206;16.340;2023-03-04T12:19:31;99043.31;;;22.29;18.46
16331;BME280;8275;48.206;16.340;2023-03-04T12:22:27;99044.72;;;22.35;18.05
16331;BME280;8275;48.206;16.340;2023-03-04T12:25:35;99038.94;;;22.41;18.40
16331;BME280;8275;48.206;16.340;2023-03-04T12:28:30;99035.88;;;22.54;17.88
16331;BME280;8275;48.206;16.340;2023-03-04T12:31:33;99030.00;;;22.76;18.14
16331;BME280;8275;48.206;16.340;2023-03-04T12:35:00;99026.44;;;22.88;17.64
16331;BME280;8275;48.206;16.340;2023-03-04T12:38:02;99018.84;;;23.09;17.79
16331;BME280;8275;48.206;16.340;2023-03-04T12:40:46;99016.84;;;23.42;17.88
16331;BME280;8275;48.206;16.340;2023-03-04T12:43:35;99011.84;;;23.60;16.93
16331;BME280;8275;48.206;16.340;2023-03-04T12:46:35;99012.81;;;23.64;17.17
16331;BME280;8275;48.206;16.340;2023-03-04T12:49:25;99010.13;;;23.80;16.63
16331;BME280;8275;48.206;16.340;2023-03-04T12:52:05;99014.69;;;23.84;15.99
16331;BME280;8275;48.206;16.340;2023-03-04T12:54:40;99004.31;;;23.85;16.41
16331;BME280;8275;48.206;16.340;2023-03-04T12:57:14;98993.56;;;23.99;16.04
16331;BME280;8275;48.206;16.340;2023-03-04T12:59:54;98995.19;;;24.00;16.28
16331;BME280;8275;48.206;16.340;2023-03-04T13:02:59;99003.47;;;24.08;17.32
16331;BME280;8275;48.206;16.340;2023-03-04T13:05:42;98995.47;;;24.59;17.41
16331;BME280;8275;48.206;16.340;2023-03-04T13:08:25;98987.78;;;25.11;17.74
16331;BME280;8275;48.206;16.340;2023-03-04T13:11:02;98985.78;;;25.55;17.26
16331;BME280;8275;48.206;16.340;2023-03-04T13:14:03;98981.41;;;25.89;17.04
16331;BME280;8275;48.206;16.340;2023-03-04T13:16:40;98971.16;;;26.12;15.79
16331;BME280;8275;48.206;16.340;2023-03-04T13:19:45;98967.03;;;26.25;16.40
16331;BME280;8275;48.206;16.340;2023-03-04T13:22:35;98976.53;;;26.55;16.94
16331;BME280;8275;48.206;16.340;2023-03-04T13:25:34;98961.75;;;26.96;16.36
16331;BME280;8275;48.206;16.340;2023-03-04T13:28:20;98960.59;;;27.39;16.65
16331;BME280;8275;48.206;16.340;2023-03-04T13:31:21;98968.44;;;27.75;16.06
16331;BME280;8275;48.206;16.340;2023-03-04T13:34:02;98954.81;;;27.77;14.31
16331;BME280;8275;48.206;16.340;2023-03-04T13:36:57;98955.22;;;27.53;14.94